sensor_id;sensor_type;location;lat;lon;timestamp;pressure;altitude;pressure_sealevel;temperature;humidity
58690;BME280;44470;53.206;-6.106;2023-04-05T00:01:27;101720.72;;;19.86;52.67
58690;BME280;44470;53.206;-6.106;2023-04-05T00:03:57;101701.19;;;19.78;52.71
58690;BME280;44470;53.206;-6.106;2023-04-05T00:06:23;101726.06;;;19.86;52.70
58690;BME280;44470;53.206;-6.106;2023-04-05T00:08:53;101735.88;;;19.85;52.78
58690;BME280;44470;53.206;-6.106;2023-04-05T00:11:41;101754.59;;;19.81;52.76
58690;BME280;44470;53.206;-6.106;2023-04-05T00:14:06;101762.59;;;19.81;52.58
58690;BME280;44470;53.206;-6.106;2023-04-05T00:16:31;101767.06;;;19.80;52.64
58690;BME280;44470;53.206;-6.106;2023-04-05T00:18:58;101775.09;;;19.80;52.73
58690;BME280;44470;53.206;-6.106;2023-04-05T00:21:24;101769.75;;;19.80;52.47
58690;BME280;44470;53.206;-6.106;2023-04-05T00:23:55;101776.88;;;19.81;52.49
58690;BME280;44470;53.206;-6.106;2023-04-05T00:26:23;101772.41;;;19.80;52.76
58690;BME280;44470;53.206;-6.106;2023-04-05T00:28:54;101763.50;;;19.81;52.54
58690;BME280;44470;53.206;-6.106;2023-04-05T00:31:19;101741.25;;;19.79;52.76
58690;BME280;44470;53.206;-6.106;2023-04-05T00:33:46;101741.25;;;19.82;52.88
58690;BME280;44470;53.206;-6.106;2023-04-05T00:36:16;101748.34;;;19.83;52.86
58690;BME280;44470;53.206;-6.106;2023-04-05T00:38:43;101748.34;;;19.83;52.31
58690;BME280;44470;53.206;-6.106;2023-04-05T00:41:10;101737.69;;;19.83;52.50
58690;BME280;44470;53.206;-6.106;2023-04-05T00:43:36;101725.22;;;19.82;52.30
58690;BME280;44470;53.206;-6.106;2023-04-05T00:46:02;101719.88;;;19.82;52.83
58690;BME280;44470;53.206;-6.106;2023-04-05T00:48:28;101716.28;;;19.82;52.79
58690;BME280;44470;53.206;-6.106;2023-04-05T00:50:54;101727.00;;;19.83;52.74
58690;BME280;44470;53.206;-6.106;2023-04-05T00:53:20;101727.84;;;19.84;52.66
58690;BME280;44470;53.206;-6.106;2023-04-05T00:55:49;101726.09;;;19.84;52.59
58690;BME280;44470;53.206;-6.106;2023-04-05T00:58:18;101713.63;;;19.82;52.47
58690;BME280;44470;53.206;-6.106;2023-04-05T01:03:28;101682.50;;;19.76;52.87
58690;BME280;44470;53.206;-6.106;2023-04-05T01:06:09;101692.25;;;19.82;52.73
58690;BME280;44470;53.206;-6.106;2023-04-05T01:11:12;101704.72;;;19.83;52.80
58690;BME280;44470;53.206;-6.106;2023-04-05T01:13:38;101694.94;;;19.80;52.65
58690;BME280;44470;53.206;-6.106;2023-04-05T01:16:04;101704.72;;;19.83;52.38
58690;BME280;44470;53.206;-6.106;2023-04-05T01:18:29;101712.75;;;19.84;52.70
58690;BME280;44470;53.206;-6.106;2023-04-05T01:26:51;101688.69;;;19.83;52.60
58690;BME280;44470;53.206;-6.106;2023-04-05T01:35:11;101666.44;;;19.81;52.96
58690;BME280;44470;53.206;-6.106;2023-04-05T01:37:40;101667.34;;;19.81;52.91
58690;BME280;44470;53.206;-6.106;2023-04-05T01:40:08;101668.22;;;19.80;52.77
58690;BME280;44470;53.206;-6.106;2023-04-05T01:42:35;101678.91;;;19.79;53.03
58690;BME280;44470;53.206;-6.106;2023-04-05T01:45:00;101671.81;;;19.76;52.86
58690;BME280;44470;53.206;-6.106;2023-04-05T01:47:26;101646.91;;;19.71;52.90
58690;BME280;44470;53.206;-6.106;2023-04-05T01:49:52;101654.91;;;19.72;52.63
58690;BME280;44470;53.206;-6.106;2023-04-05T01:52:17;101641.56;;;19.66;52.49
58690;BME280;44470;53.206;-6.106;2023-04-05T01:54:43;101664.66;;;19.80;52.89
58690;BME280;44470;53.206;-6.106;2023-04-05T01:57:08;101658.44;;;19.79;52.90
58690;BME280;44470;53.206;-6.106;2023-04-05T01:59:34;101657.56;;;19.80;52.73
58690;BME280;44470;53.206;-6.106;2023-04-05T02:01:59;101655.78;;;19.79;52.81
58690;BME280;44470;53.206;-6.106;2023-04-05T02:04:26;101641.56;;;19.71;52.94
58690;BME280;44470;53.206;-6.106;2023-04-05T02:06:52;101655.78;;;19.79;52.66
58690;BME280;44470;53.206;-6.106;2023-04-05T02:09:17;101659.31;;;19.81;53.15
58690;BME280;44470;53.206;-6.106;2023-04-05T02:11:44;101653.97;;;19.81;52.49
58690;BME280;44470;53.206;-6.106;2023-04-05T02:14:10;101645.06;;;19.82;52.70
58690;BME280;44470;53.206;-6.106;2023-04-05T02:16:36;101630.88;;;19.74;52.72
58690;BME280;44470;53.206;-6.106;2023-04-05T02:19:02;101636.22;;;19.74;52.85
58690;BME280;44470;53.206;-6.106;2023-04-05T02:21:27;101639.72;;;19.81;52.62
58690;BME280;44470;53.206;-6.106;2023-04-05T02:23:54;101630.84;;;19.80;52.50
58690;BME280;44470;53.206;-6.106;2023-04-05T02:26:20;101637.94;;;19.81;52.73
58690;BME280;44470;53.206;-6.106;2023-04-05T02:28:46;101631.72;;;19.81;52.84
58690;BME280;44470;53.206;-6.106;2023-04-05T02:31:12;101629.94;;;19.80;52.51
58690;BME280;44470;53.206;-6.106;2023-04-05T02:33:40;101625.50;;;19.79;52.48
58690;BME280;44470;53.206;-6.106;2023-04-05T02:36:07;101625.50;;;19.80;52.62
58690;BME280;44470;53.206;-6.106;2023-04-05T02:38:34;101613.97;;;19.70;52.83
58690;BME280;44470;53.206;-6.106;2023-04-05T02:41:00;101617.50;;;19.72;52.86
58690;BME280;44470;53.206;-6.106;2023-04-05T02:43:26;101628.16;;;19.79;52.88
58690;BME280;44470;53.206;-6.106;2023-04-05T02:45:52;101624.59;;;19.80;52.75
58690;BME280;44470;53.206;-6.106;2023-04-05T02:48:18;101603.31;;;19.69;52.90
58690;BME280;44470;53.206;-6.106;2023-04-05T02:50:48;101591.72;;;19.70;52.75
58690;BME280;44470;53.206;-6.106;2023-04-05T02:53:15;101610.34;;;19.81;52.74
58690;BME280;44470;53.206;-6.106;2023-04-05T02:55:41;101601.50;;;19.74;52.66
58690;BME280;44470;53.206;-6.106;2023-04-05T02:58:07;101619.25;;;19.80;52.75
58690;BME280;44470;53.206;-6.106;2023-04-05T03:00:45;101613.03;;;19.79;52.74
58690;BME280;44470;53.206;-6.106;2023-04-05T03:03:18;101604.13;;;19.80;52.82
58690;BME280;44470;53.206;-6.106;2023-04-05T03:05:44;101604.13;;;19.80;52.55
58690;BME280;44470;53.206;-6.106;2023-04-05T03:08:14;101605.88;;;19.80;52.82
58690;BME280;44470;53.206;-6.106;2023-04-05T03:10:47;101597.00;;;19.79;53.03
58690;BME280;44470;53.206;-6.106;2023-04-05T03:13:15;101571.25;;;19.67;53.05
58690;BME280;44470;53.206;-6.106;2023-04-05T03:15:42;101605.91;;;19.81;53.27
58690;BME280;44470;53.206;-6.106;2023-04-05T03:18:11;101595.25;;;19.75;53.13
58690;BME280;44470;53.206;-6.106;2023-04-05T03:20:39;101601.44;;;19.80;53.55
58690;BME280;44470;53.206;-6.106;2023-04-05T03:23:06;101593.44;;;19.80;53.39
58690;BME280;44470;53.206;-6.106;2023-04-05T03:25:36;101590.78;;;19.80;53.30
58690;BME280;44470;53.206;-6.106;2023-04-05T03:28:04;101580.97;;;19.79;53.73
58690;BME280;44470;53.206;-6.106;2023-04-05T03:30:34;101588.09;;;19.80;53.68
58690;BME280;44470;53.206;-6.106;2023-04-05T03:33:11;101580.97;;;19.79;53.46
58690;BME280;44470;53.206;-6.106;2023-04-05T03:35:41;101567.66;;;19.71;53.56
58690;BME280;44470;53.206;-6.106;2023-04-05T03:38:08;101580.09;;;19.80;53.56
58690;BME280;44470;53.206;-6.106;2023-04-05T03:40:38;101572.06;;;19.80;53.38
58690;BME280;44470;53.206;-6.106;2023-04-05T03:43:07;101584.56;;;19.78;53.66
58690;BME280;44470;53.206;-6.106;2023-04-05T03:45:32;101582.75;;;19.80;53.39
58690;BME280;44470;53.206;-6.106;2023-04-05T03:47:58;101572.09;;;19.77;53.55
58690;BME280;44470;53.206;-6.106;2023-04-05T03:50:25;101576.53;;;19.78;53.43
58690;BME280;44470;53.206;-6.106;2023-04-05T03:52:51;101589.88;;;19.80;53.72
58690;BME280;44470;53.206;-6.106;2023-04-05T03:55:17;101584.56;;;19.78;53.62
58690;BME280;44470;53.206;-6.106;2023-04-05T03:57:44;101576.53;;;19.77;53.34
58690;BME280;44470;53.206;-6.106;2023-04-05T04:00:21;101584.56;;;19.78;53.39
58690;BME280;44470;53.206;-6.106;2023-04-05T04:03:05;101582.78;;;19.77;53.50
58690;BME280;44470;53.206;-6.106;2023-04-05T04:05:32;101581.91;;;19.75;53.18
58690;BME280;44470;53.206;-6.106;2023-04-05T04:08:04;101586.31;;;19.78;53.35
58690;BME280;44470;53.206;-6.106;2023-04-05T04:10:31;101577.44;;;19.77;53.57
58690;BME280;44470;53.206;-6.106;2023-04-05T04:12:57;101580.09;;;19.77;53.59
58690;BME280;44470;53.206;-6.106;2023-04-05T04:15:27;101564.06;;;19.77;53.56
58690;BME280;44470;53.206;-6.106;2023-04-05T04:18:12;101562.28;;;19.78;53.70
58690;BME280;44470;53.206;-6.106;2023-04-05T04:20:56;101557.84;;;19.75;53.50
58690;BME280;44470;53.206;-6.106;2023-04-05T04:23:41;101555.19;;;19.75;53.57
58690;BME280;44470;53.206;-6.106;2023-04-05T04:26:25;101558.72;;;19.75;53.66
58690;BME280;44470;53.206;-6.106;2023-04-05T04:29:10;101542.72;;;19.72;53.60
58690;BME280;44470;53.206;-6.106;2023-04-05T04:32:00;101550.75;;;19.74;53.68
58690;BME280;44470;53.206;-6.106;2023-04-05T04:34:39;101538.31;;;19.67;53.71
58690;BME280;44470;53.206;-6.106;2023-04-05T04:37:28;101550.75;;;19.72;53.52
58690;BME280;44470;53.206;-6.106;2023-04-05T04:40:17;101549.00;;;19.70;53.84
58690;BME280;44470;53.206;-6.106;2023-04-05T04:43:13;101543.66;;;19.68;53.62
58690;BME280;44470;53.206;-6.106;2023-04-05T04:45:59;101539.19;;;19.67;53.94
58690;BME280;44470;53.206;-6.106;2023-04-05T04:48:51;101529.41;;;19.68;53.50
58690;BME280;44470;53.206;-6.106;2023-04-05T04:51:32;101534.75;;;19.68;53.87
58690;BME280;44470;53.206;-6.106;2023-04-05T04:53:58;101510.72;;;19.61;53.69
58690;BME280;44470;53.206;-6.106;2023-04-05T04:59:36;101500.06;;;19.61;53.49
58690;BME280;44470;53.206;-6.106;2023-04-05T05:02:03;101516.06;;;19.68;53.62
58690;BME280;44470;53.206;-6.106;2023-04-05T05:04:29;101509.81;;;19.69;53.77
58690;BME280;44470;53.206;-6.106;2023-04-05T05:06:55;101507.19;;;19.63;53.58
58690;BME280;44470;53.206;-6.106;2023-04-05T05:09:21;101534.75;;;19.71;53.61
58690;BME280;44470;53.206;-6.106;2023-04-05T05:11:53;101523.19;;;19.67;53.65
58690;BME280;44470;53.206;-6.106;2023-04-05T05:14:21;101525.81;;;19.72;53.57
58690;BME280;44470;53.206;-6.106;2023-04-05T05:16:46;101522.28;;;19.70;53.69
58690;BME280;44470;53.206;-6.106;2023-04-05T05:19:12;101525.81;;;19.72;53.56
58690;BME280;44470;53.206;-6.106;2023-04-05T05:21:47;101515.16;;;19.72;53.66
58690;BME280;44470;53.206;-6.106;2023-04-05T05:24:14;101524.06;;;19.71;53.49
58690;BME280;44470;53.206;-6.106;2023-04-05T05:26:40;101519.59;;;19.71;53.86
58690;BME280;44470;53.206;-6.106;2023-04-05T05:29:05;101526.72;;;19.71;53.65
58690;BME280;44470;53.206;-6.106;2023-04-05T05:31:35;101524.03;;;19.72;53.61
58690;BME280;44470;53.206;-6.106;2023-04-05T05:34:00;101516.94;;;19.70;53.49
58690;BME280;44470;53.206;-6.106;2023-04-05T05:36:26;101524.03;;;19.74;53.65
58690;BME280;44470;53.206;-6.106;2023-04-05T05:38:52;101518.72;;;19.71;53.41
58690;BME280;44470;53.206;-6.106;2023-04-05T05:41:18;101511.59;;;19.70;53.51
58690;BME280;44470;53.206;-6.106;2023-04-05T05:43:45;101513.38;;;19.71;53.56
58690;BME280;44470;53.206;-6.106;2023-04-05T05:46:11;101503.59;;;19.65;53.50
58690;BME280;44470;53.206;-6.106;2023-04-05T05:48:36;101506.25;;;19.70;53.49
58690;BME280;44470;53.206;-6.106;2023-04-05T05:51:02;101510.69;;;19.71;53.46
58690;BME280;44470;53.206;-6.106;2023-04-05T05:53:35;101496.53;;;19.63;53.42
58690;BME280;44470;53.206;-6.106;2023-04-05T05:56:00;101496.50;;;19.66;53.29
58690;BME280;44470;53.206;-6.106;2023-04-05T05:58:26;101504.47;;;19.69;53.54
58690;BME280;44470;53.206;-6.106;2023-04-05T06:00:51;101504.47;;;19.70;53.55
58690;BME280;44470;53.206;-6.106;2023-04-05T06:03:24;101500.88;;;19.71;53.40
58690;BME280;44470;53.206;-6.106;2023-04-05T06:05:53;101502.69;;;19.71;53.50
58690;BME280;44470;53.206;-6.106;2023-04-05T06:08:19;101489.34;;;19.66;53.49
58690;BME280;44470;53.206;-6.106;2023-04-05T06:10:45;101492.03;;;19.63;53.52
58690;BME280;44470;53.206;-6.106;2023-04-05T06:13:10;101500.91;;;19.70;53.64
58690;BME280;44470;53.206;-6.106;2023-04-05T06:15:36;101494.72;;;19.63;53.25
58690;BME280;44470;53.206;-6.106;2023-04-05T06:18:01;101511.59;;;19.70;53.42
58690;BME280;44470;53.206;-6.106;2023-04-05T06:20:27;101487.63;;;19.57;53.34
58690;BME280;44470;53.206;-6.106;2023-04-05T06:22:52;101502.69;;;19.69;53.64
58690;BME280;44470;53.206;-6.106;2023-04-05T06:25:17;101521.38;;;19.71;53.64
58690;BME280;44470;53.206;-6.106;2023-04-05T06:27:43;101517.84;;;19.69;53.39
58690;BME280;44470;53.206;-6.106;2023-04-05T06:30:09;101526.75;;;19.68;53.07
58690;BME280;44470;53.206;-6.106;2023-04-05T06:32:34;101528.50;;;19.70;53.24
58690;BME280;44470;53.206;-6.106;2023-04-05T06:35:00;101528.53;;;19.69;53.28
58690;BME280;44470;53.206;-6.106;2023-04-05T06:37:29;101529.38;;;19.69;53.42
58690;BME280;44470;53.206;-6.106;2023-04-05T06:39:54;101522.31;;;19.67;53.52
58690;BME280;44470;53.206;-6.106;2023-04-05T06:45:35;101524.06;;;19.68;53.48
58690;BME280;44470;53.206;-6.106;2023-04-05T06:48:01;101518.72;;;19.66;53.56
58690;BME280;44470;53.206;-6.106;2023-04-05T06:50:27;101503.66;;;19.59;53.17
58690;BME280;44470;53.206;-6.106;2023-04-05T06:52:52;101523.19;;;19.66;53.31
58690;BME280;44470;53.206;-6.106;2023-04-05T06:55:18;101519.63;;;19.67;53.38
58690;BME280;44470;53.206;-6.106;2023-04-05T06:57:43;101518.75;;;19.68;53.41
58690;BME280;44470;53.206;-6.106;2023-04-05T07:00:11;101516.97;;;19.67;53.45
58690;BME280;44470;53.206;-6.106;2023-04-05T07:02:38;101509.84;;;19.64;53.28
58690;BME280;44470;53.206;-6.106;2023-04-05T07:05:04;101516.06;;;19.68;53.55
58690;BME280;44470;53.206;-6.106;2023-04-05T07:07:32;101511.66;;;19.64;53.15
58690;BME280;44470;53.206;-6.106;2023-04-05T07:09:58;101524.06;;;19.68;53.21
58690;BME280;44470;53.206;-6.106;2023-04-05T07:12:24;101520.53;;;19.66;53.37
58690;BME280;44470;53.206;-6.106;2023-04-05T07:14:49;101521.44;;;19.65;53.43
58690;BME280;44470;53.206;-6.106;2023-04-05T07:17:15;101513.41;;;19.63;53.67
58690;BME280;44470;53.206;-6.106;2023-04-05T07:19:40;101522.31;;;19.67;53.31
58690;BME280;44470;53.206;-6.106;2023-04-05T07:22:06;101513.41;;;19.61;53.50
58690;BME280;44470;53.206;-6.106;2023-04-05T07:24:32;101511.63;;;19.62;53.60
58690;BME280;44470;53.206;-6.106;2023-04-05T07:26:57;101508.94;;;19.67;53.28
58690;BME280;44470;53.206;-6.106;2023-04-05T07:29:23;101501.84;;;19.63;53.52
58690;BME280;44470;53.206;-6.106;2023-04-05T07:31:48;101508.94;;;19.67;53.65
58690;BME280;44470;53.206;-6.106;2023-04-05T07:34:14;101510.72;;;19.66;53.37
58690;BME280;44470;53.206;-6.106;2023-04-05T07:36:39;101500.94;;;19.65;53.64
58690;BME280;44470;53.206;-6.106;2023-04-05T07:39:06;101502.72;;;19.65;53.53
58690;BME280;44470;53.206;-6.106;2023-04-05T07:41:31;101489.41;;;19.57;53.23
58690;BME280;44470;53.206;-6.106;2023-04-05T07:43:59;101501.84;;;19.64;53.63
58690;BME280;44470;53.206;-6.106;2023-04-05T07:46:25;101505.41;;;19.65;53.31
58690;BME280;44470;53.206;-6.106;2023-04-05T07:48:52;101506.31;;;19.64;53.51
58690;BME280;44470;53.206;-6.106;2023-04-05T07:51:17;101493.84;;;19.56;53.65
58690;BME280;44470;53.206;-6.106;2023-04-05T07:53:43;101507.16;;;19.67;53.68
58690;BME280;44470;53.206;-6.106;2023-04-05T07:56:10;101503.59;;;19.65;53.62
58690;BME280;44470;53.206;-6.106;2023-04-05T07:58:37;101496.50;;;19.66;53.37
58690;BME280;44470;53.206;-6.106;2023-04-05T08:01:07;101498.28;;;19.64;53.30
58690;BME280;44470;53.206;-6.106;2023-04-05T08:03:33;101505.41;;;19.65;53.11
58690;BME280;44470;53.206;-6.106;2023-04-05T08:06:08;101501.84;;;19.64;53.38
58690;BME280;44470;53.206;-6.106;2023-04-05T08:08:35;101499.16;;;19.66;53.40
58690;BME280;44470;53.206;-6.106;2023-04-05T08:11:04;101499.16;;;19.66;53.55
58690;BME280;44470;53.206;-6.106;2023-04-05T08:13:30;101499.16;;;19.64;53.40
58690;BME280;44470;53.206;-6.106;2023-04-05T08:15:56;101477.84;;;19.58;53.37
58690;BME280;44470;53.206;-6.106;2023-04-05T08:18:21;101486.72;;;19.65;53.40
58690;BME280;44470;53.206;-6.106;2023-04-05T08:21:18;101483.13;;;19.64;53.66
58690;BME280;44470;53.206;-6.106;2023-04-05T08:23:43;101489.38;;;19.65;53.61
58690;BME280;44470;53.206;-6.106;2023-04-05T08:26:09;101471.63;;;19.56;53.45
58690;BME280;44470;53.206;-6.106;2023-04-05T08:28:34;101486.72;;;19.65;53.82
58690;BME280;44470;53.206;-6.106;2023-04-05T08:31:00;101480.50;;;19.63;53.88
58690;BME280;44470;53.206;-6.106;2023-04-05T08:33:25;101477.81;;;19.63;53.89
58690;BME280;44470;53.206;-6.106;2023-04-05T08:35:55;101475.13;;;19.66;53.62
58690;BME280;44470;53.206;-6.106;2023-04-05T08:38:21;101476.03;;;19.65;53.73
58690;BME280;44470;53.206;-6.106;2023-04-05T08:40:47;101470.69;;;19.65;53.96
58690;BME280;44470;53.206;-6.106;2023-04-05T08:43:33;101470.69;;;19.65;54.03
58690;BME280;44470;53.206;-6.106;2023-04-05T08:46:02;101475.09;;;19.67;53.90
58690;BME280;44470;53.206;-6.106;2023-04-05T08:48:32;101461.81;;;19.58;54.09
58690;BME280;44470;53.206;-6.106;2023-04-05T08:51:00;101460.00;;;19.65;54.27
58690;BME280;44470;53.206;-6.106;2023-04-05T08:53:26;101470.66;;;19.66;54.35
58690;BME280;44470;53.206;-6.106;2023-04-05T08:55:54;101468.03;;;19.65;54.11
58690;BME280;44470;53.206;-6.106;2023-04-05T08:58:21;101472.47;;;19.66;54.25
58690;BME280;44470;53.206;-6.106;2023-04-05T09:00:49;101449.34;;;19.58;54.17
58690;BME280;44470;53.206;-6.106;2023-04-05T09:03:24;101470.69;;;19.65;54.05
58690;BME280;44470;53.206;-6.106;2023-04-05T09:05:52;101471.38;;;19.87;54.34
58690;BME280;44470;53.206;-6.106;2023-04-05T09:08:18;101475.91;;;19.79;53.96
58690;BME280;44470;53.206;-6.106;2023-04-05T09:10:49;101476.84;;;19.76;54.37
58690;BME280;44470;53.206;-6.106;2023-04-05T09:13:16;101484.84;;;19.76;54.50
58690;BME280;44470;53.206;-6.106;2023-04-05T09:15:43;101483.06;;;19.75;54.78
58690;BME280;44470;53.206;-6.106;2023-04-05T09:18:08;101485.72;;;19.77;54.96
58690;BME280;44470;53.206;-6.106;2023-04-05T09:20:34;101476.81;;;19.74;55.29
58690;BME280;44470;53.206;-6.106;2023-04-05T09:22:59;101474.19;;;19.73;55.23
58690;BME280;44470;53.206;-6.106;2023-04-05T09:28:00;101464.44;;;19.69;55.42
58690;BME280;44470;53.206;-6.106;2023-04-05T09:30:27;101472.41;;;19.72;55.31
58690;BME280;44470;53.206;-6.106;2023-04-05T09:32:54;101455.53;;;19.65;55.43
58690;BME280;44470;53.206;-6.106;2023-04-05T09:35:21;101459.97;;;19.71;55.38
58690;BME280;44470;53.206;-6.106;2023-04-05T09:37:52;101462.59;;;19.74;55.69
58690;BME280;44470;53.206;-6.106;2023-04-05T09:40:18;101459.00;;;19.78;55.49
58690;BME280;44470;53.206;-6.106;2023-04-05T09:42:44;101462.53;;;19.82;55.37
58690;BME280;44470;53.206;-6.106;2023-04-05T09:45:10;101448.25;;;19.89;56.22
58690;BME280;44470;53.206;-6.106;2023-04-05T09:47:53;101445.56;;;19.94;55.51
58690;BME280;44470;53.206;-6.106;2023-04-05T09:50:20;101457.09;;;19.99;55.68
58690;BME280;44470;53.206;-6.106;2023-04-05T09:52:46;101465.13;;;19.96;56.01
58690;BME280;44470;53.206;-6.106;2023-04-05T09:55:12;101454.47;;;19.89;55.60
58690;BME280;44470;53.206;-6.106;2023-04-05T09:57:39;101457.16;;;19.85;55.79
58690;BME280;44470;53.206;-6.106;2023-04-05T10:00:17;101440.31;;;19.78;55.46
58690;BME280;44470;53.206;-6.106;2023-04-05T10:02:43;101456.25;;;19.87;55.55
58690;BME280;44470;53.206;-6.106;2023-04-05T10:05:12;101458.03;;;19.88;55.04
58690;BME280;44470;53.206;-6.106;2023-04-05T10:07:41;101460.69;;;19.88;55.49
58690;BME280;44470;53.206;-6.106;2023-04-05T10:10:08;101453.59;;;19.87;55.48
58690;BME280;44470;53.206;-6.106;2023-04-05T10:12:37;101448.28;;;19.81;55.23
58690;BME280;44470;53.206;-6.106;2023-04-05T10:15:03;101471.38;;;19.88;55.56
58690;BME280;44470;53.206;-6.106;2023-04-05T10:27:53;101473.19;;;19.86;55.26
58690;BME280;44470;53.206;-6.106;2023-04-05T10:30:24;101456.34;;;19.78;55.33
58690;BME280;44470;53.206;-6.106;2023-04-05T10:33:09;101456.31;;;19.81;55.41
58690;BME280;44470;53.206;-6.106;2023-04-05T10:35:59;101471.44;;;19.82;55.28
58690;BME280;44470;53.206;-6.106;2023-04-05T10:39:00;101458.09;;;19.82;55.23
58690;BME280;44470;53.206;-6.106;2023-04-05T10:41:33;101454.53;;;19.80;55.22
58690;BME280;44470;53.206;-6.106;2023-04-05T10:44:01;101454.53;;;19.80;55.07
58690;BME280;44470;53.206;-6.106;2023-04-05T10:46:29;101453.63;;;19.81;55.31
58690;BME280;44470;53.206;-6.106;2023-04-05T10:49:03;101448.28;;;19.81;55.30
58690;BME280;44470;53.206;-6.106;2023-04-05T10:51:32;101450.97;;;19.81;55.51
58690;BME280;44470;53.206;-6.106;2023-04-05T10:53:59;101443.84;;;19.80;55.42
58690;BME280;44470;53.206;-6.106;2023-04-05T10:56:25;101443.84;;;19.80;55.56
58690;BME280;44470;53.206;-6.106;2023-04-05T10:58:52;101428.75;;;19.74;55.35
58690;BME280;44470;53.206;-6.106;2023-04-05T11:01:20;101442.09;;;19.76;55.66
58690;BME280;44470;53.206;-6.106;2023-04-05T11:03:47;101445.63;;;19.81;55.45
58690;BME280;44470;53.206;-6.106;2023-04-05T11:08:45;101441.16;;;19.82;55.61
58690;BME280;44470;53.206;-6.106;2023-04-05T11:11:13;101429.69;;;19.70;55.74
58690;BME280;44470;53.206;-6.106;2023-04-05T11:13:51;101446.53;;;19.79;55.39
58690;BME280;44470;53.206;-6.106;2023-04-05T11:16:17;101443.84;;;19.80;55.54
58690;BME280;44470;53.206;-6.106;2023-04-05T11:18:44;101445.66;;;19.78;55.33
58690;BME280;44470;53.206;-6.106;2023-04-05T11:21:11;101450.13;;;19.76;55.36
58690;BME280;44470;53.206;-6.106;2023-04-05T11:23:59;101449.22;;;19.77;55.64
58690;BME280;44470;53.206;-6.106;2023-04-05T11:29:14;101438.53;;;19.75;55.58
58690;BME280;44470;53.206;-6.106;2023-04-05T11:32:05;101430.56;;;19.71;55.78
58690;BME280;44470;53.206;-6.106;2023-04-05T11:34:34;101415.50;;;19.64;55.55
58690;BME280;44470;53.206;-6.106;2023-04-05T11:37:00;101433.25;;;19.71;55.78
58690;BME280;44470;53.206;-6.106;2023-04-05T11:39:26;101435.03;;;19.72;55.63
58690;BME280;44470;53.206;-6.106;2023-04-05T11:42:03;101440.38;;;19.72;55.83
58690;BME280;44470;53.206;-6.106;2023-04-05T11:44:39;101428.78;;;19.71;55.67
58690;BME280;44470;53.206;-6.106;2023-04-05T11:47:05;101432.34;;;19.72;55.93
58690;BME280;44470;53.206;-6.106;2023-04-05T11:49:32;101427.00;;;19.72;55.84
58690;BME280;44470;53.206;-6.106;2023-04-05T11:51:58;101430.56;;;19.71;55.92
58690;BME280;44470;53.206;-6.106;2023-04-05T11:54:30;101420.78;;;19.68;55.91
58690;BME280;44470;53.206;-6.106;2023-04-05T11:56:56;101424.34;;;19.72;56.07
58690;BME280;44470;53.206;-6.106;2023-04-05T11:59:41;101417.22;;;19.71;56.09
58690;BME280;44470;53.206;-6.106;2023-04-05T12:02:06;101408.34;;;19.69;55.94
58690;BME280;44470;53.206;-6.106;2023-04-05T12:04:37;101406.53;;;19.71;56.01
58690;BME280;44470;53.206;-6.106;2023-04-05T12:07:09;101405.66;;;19.70;55.99
58690;BME280;44470;53.206;-6.106;2023-04-05T12:09:35;101404.78;;;19.70;55.82
58690;BME280;44470;53.206;-6.106;2023-04-05T12:12:01;101401.22;;;19.68;55.86
58690;BME280;44470;53.206;-6.106;2023-04-05T12:14:27;101405.66;;;19.70;55.76
58690;BME280;44470;53.206;-6.106;2023-04-05T12:16:52;101394.13;;;19.67;55.67
58690;BME280;44470;53.206;-6.106;2023-04-05T12:19:21;101396.75;;;19.70;55.87
58690;BME280;44470;53.206;-6.106;2023-04-05T12:21:47;101393.19;;;19.69;55.72
58690;BME280;44470;53.206;-6.106;2023-04-05T12:24:12;101392.31;;;19.69;55.58
58690;BME280;44470;53.206;-6.106;2023-04-05T12:26:38;101388.75;;;19.70;55.52
58690;BME280;44470;53.206;-6.106;2023-04-05T12:29:04;101386.06;;;19.68;55.59
58690;BME280;44470;53.206;-6.106;2023-04-05T12:31:40;101363.91;;;19.58;55.77
58690;BME280;44470;53.206;-6.106;2023-04-05T12:34:07;101383.41;;;19.68;55.88
58690;BME280;44470;53.206;-6.106;2023-04-05T12:36:33;101373.69;;;19.61;55.64
58690;BME280;44470;53.206;-6.106;2023-04-05T12:39:00;101376.34;;;19.63;55.75
58690;BME280;44470;53.206;-6.106;2023-04-05T12:41:29;101386.06;;;19.68;55.74
58690;BME280;44470;53.206;-6.106;2023-04-05T12:43:56;101367.44;;;19.60;55.94
58690;BME280;44470;53.206;-6.106;2023-04-05T12:46:41;101378.97;;;19.69;55.76
58690;BME280;44470;53.206;-6.106;2023-04-05T12:49:14;101387.84;;;19.69;56.15
58690;BME280;44470;53.206;-6.106;2023-04-05T12:51:46;101387.88;;;19.68;55.62
58690;BME280;44470;53.206;-6.106;2023-04-05T12:54:22;101389.66;;;19.69;55.87
58690;BME280;44470;53.206;-6.106;2023-04-05T12:56:52;101379.88;;;19.68;55.78
58690;BME280;44470;53.206;-6.106;2023-04-05T12:59:22;101368.28;;;19.67;56.23
58690;BME280;44470;53.206;-6.106;2023-04-05T13:01:48;101368.31;;;19.66;56.02
58690;BME280;44470;53.206;-6.106;2023-04-05T13:04:14;101362.13;;;19.59;55.78
58690;BME280;44470;53.206;-6.106;2023-04-05T13:06:39;101372.75;;;19.65;55.58
58690;BME280;44470;53.206;-6.106;2023-04-05T13:09:05;101371.84;;;19.66;55.64
58690;BME280;44470;53.206;-6.106;2023-04-05T13:11:31;101365.66;;;19.66;55.93
58690;BME280;44470;53.206;-6.106;2023-04-05T13:13:56;101343.44;;;19.57;55.90
58690;BME280;44470;53.206;-6.106;2023-04-05T13:16:22;101364.78;;;19.64;55.97
58690;BME280;44470;53.206;-6.106;2023-04-05T13:18:47;101370.97;;;19.66;55.58
58690;BME280;44470;53.206;-6.106;2023-04-05T13:21:12;101367.41;;;19.67;55.87
58690;BME280;44470;53.206;-6.106;2023-04-05T13:23:39;101356.75;;;19.64;55.95
58690;BME280;44470;53.206;-6.106;2023-04-05T13:26:06;101366.50;;;19.66;56.00
58690;BME280;44470;53.206;-6.106;2023-04-05T13:28:31;101359.44;;;19.62;55.82
58690;BME280;44470;53.206;-6.106;2023-04-05T13:30:58;101366.50;;;19.66;56.32